createdAt,value
2018-09-15T00:01:44.907Z,100998.43
2018-09-15T00:06:42.276Z,100990.42
2018-09-15T00:11:39.701Z,100993.47
2018-09-15T00:16:37.104Z,101005.12
2018-09-15T00:21:34.503Z,100999.23
2018-09-15T00:26:31.997Z,100999.74
2018-09-15T00:31:29.385Z,100998.04
2018-09-15T00:36:26.782Z,100994.30
2018-09-15T00:41:24.212Z,100994.70
2018-09-15T00:46:21.608Z,100996.58
2018-09-15T00:51:18.995Z,101000.59
2018-09-15T00:56:16.370Z,100999.70
2018-09-15T01:01:14.086Z,101006.76
2018-09-15T01:06:11.527Z,101004.34
2018-09-15T01:11:09.071Z,101002.75
2018-09-15T01:16:06.462Z,101004.08
2018-09-15T01:21:03.859Z,100997.59
2018-09-15T01:26:01.256Z,100990.84
2018-09-15T01:30:58.656Z,100995.58
2018-09-15T01:35:56.052Z,100994.02
2018-09-15T01:40:53.441Z,100988.97
2018-09-15T01:45:50.830Z,100991.81
2018-09-15T01:50:48.251Z,100985.36
2018-09-15T01:55:45.674Z,100997.15
2018-09-15T02:00:43.091Z,100992.94
2018-09-15T02:05:40.480Z,100988.36
2018-09-15T02:10:37.865Z,100985.52
2018-09-15T02:15:35.248Z,100992.19
2018-09-15T02:20:32.611Z,101000.81
2018-09-15T02:25:29.975Z,100997.97
2018-09-15T02:30:27.350Z,101004.66
2018-09-15T02:35:24.747Z,101002.41
2018-09-15T02:40:22.203Z,101001.70
2018-09-15T02:45:19.587Z,101001.53
2018-09-15T02:50:16.982Z,101001.00
2018-09-15T02:55:14.350Z,101005.84
2018-09-15T03:00:11.762Z,101006.94
2018-09-15T03:05:09.134Z,101002.28
2018-09-15T03:10:07.660Z,101007.39
2018-09-15T03:15:05.096Z,101001.58
2018-09-15T03:20:02.552Z,101007.84
2018-09-15T03:24:59.942Z,101010.98
2018-09-15T03:29:57.339Z,101022.73
2018-09-15T03:34:54.703Z,101026.84
2018-09-15T03:39:56.597Z,101025.63
2018-09-15T03:44:53.980Z,101030.02
2018-09-15T03:49:51.355Z,101023.45
2018-09-15T03:54:48.831Z,101024.19
2018-09-15T03:59:46.204Z,101037.05
2018-09-15T04:04:43.592Z,101037.98
2018-09-15T04:09:49.212Z,101042.41
2018-09-15T04:14:46.713Z,101049.34
2018-09-15T04:19:44.095Z,101059.62
2018-09-15T04:24:41.576Z,101052.42
2018-09-15T04:29:39.023Z,101063.05
2018-09-15T04:34:36.498Z,101057.74
2018-09-15T04:39:43.008Z,101065.20
2018-09-15T04:44:40.444Z,101070.72
2018-09-15T04:49:37.864Z,101067.05
2018-09-15T04:54:35.277Z,101070.75
2018-09-15T04:59:32.690Z,101072.32
2018-09-15T05:04:30.087Z,101081.58
2018-09-15T05:09:38.182Z,101090.75
2018-09-15T05:14:35.645Z,101089.75
2018-09-15T05:19:33.108Z,101105.48
2018-09-15T05:24:30.888Z,101098.66
2018-09-15T05:29:28.367Z,101102.95
2018-09-15T05:34:25.803Z,101104.89
2018-09-15T05:39:29.866Z,101112.32
2018-09-15T05:44:27.322Z,101110.23
2018-09-15T05:49:24.745Z,101117.06
2018-09-15T05:54:22.156Z,101122.32
2018-09-15T05:59:19.544Z,101122.39
2018-09-15T06:04:16.955Z,101133.53
2018-09-15T06:09:15.894Z,101128.51
2018-09-15T06:14:13.356Z,101115.23
2018-09-15T06:19:10.747Z,101116.92
2018-09-15T06:24:08.231Z,101123.02
2018-09-15T06:29:06.827Z,101121.86
2018-09-15T06:34:04.278Z,101128.32
2018-09-15T06:39:03.358Z,101126.19
2018-09-15T06:44:00.772Z,101136.48
2018-09-15T06:48:58.191Z,101135.31
2018-09-15T06:53:55.931Z,101143.44
2018-09-15T06:58:53.393Z,101160.59
2018-09-15T07:03:50.802Z,101156.36
2018-09-15T07:08:48.226Z,101166.73
2018-09-15T07:13:45.727Z,101171.66
2018-09-15T07:18:43.172Z,101179.13
2018-09-15T07:23:40.667Z,101186.91
2018-09-15T07:28:38.087Z,101189.70
2018-09-15T07:33:35.511Z,101195.32
2018-09-15T07:38:32.943Z,101196.90
2018-09-15T07:43:30.337Z,101192.69
2018-09-15T07:48:27.768Z,101201.72
2018-09-15T07:53:25.158Z,101199.59
2018-09-15T07:58:22.540Z,101210.12
2018-09-15T08:03:19.966Z,101226.03
2018-09-15T08:08:17.375Z,101216.75
2018-09-15T08:13:14.831Z,101212.17
2018-09-15T08:18:12.276Z,101214.95
2018-09-15T08:23:09.702Z,101205.61
2018-09-15T08:28:07.080Z,101209.06
2018-09-15T08:33:04.512Z,101203.30
2018-09-15T08:38:01.955Z,101209.02
2018-09-15T08:42:59.360Z,101219.21
2018-09-15T08:47:57.621Z,101227.16
2018-09-15T08:52:55.019Z,101222.42
2018-09-15T08:57:52.428Z,101222.39
2018-09-15T09:02:49.834Z,101227.34
2018-09-15T09:07:47.256Z,101226.69
2018-09-15T09:12:44.696Z,101233.19
2018-09-15T09:17:42.086Z,101243.37
2018-09-15T09:22:39.488Z,101236.79
2018-09-15T09:27:37.016Z,101232.23
2018-09-15T09:32:34.536Z,101248.66
2018-09-15T09:37:31.935Z,101247.31
2018-09-15T09:42:29.403Z,101239.61
2018-09-15T09:47:26.835Z,101232.28
2018-09-15T09:52:24.241Z,101234.55
2018-09-15T09:57:21.641Z,101237.21
2018-09-15T10:02:23.426Z,101225.94
2018-09-15T10:07:20.854Z,101227.17
2018-09-15T10:12:18.292Z,101239.52
2018-09-15T10:17:15.687Z,101232.76
2018-09-15T10:22:13.083Z,101234.52
2018-09-15T10:27:10.521Z,101242.94
2018-09-15T10:32:07.994Z,101242.34
2018-09-15T10:37:05.407Z,101231.89
2018-09-15T10:42:02.887Z,101235.41
2018-09-15T10:47:00.411Z,101242.47
2018-09-15T10:51:58.290Z,101246.94
2018-09-15T10:56:55.678Z,101260.06
2018-09-15T11:01:53.111Z,101259.10
2018-09-15T11:06:50.514Z,101263.36
2018-09-15T11:11:47.948Z,101266.17
2018-09-15T11:16:45.354Z,101263.97
2018-09-15T11:21:42.743Z,101266.65
2018-09-15T11:26:40.148Z,101262.02
2018-09-15T11:31:37.567Z,101264.09
2018-09-15T11:36:34.993Z,101268.36
2018-09-15T11:41:32.459Z,101272.45
2018-09-15T11:46:30.179Z,101276.98
2018-09-15T11:51:27.615Z,101275.05
2018-09-15T11:56:25.018Z,101267.43
2018-09-15T12:01:22.421Z,101266.75
2018-09-15T12:06:19.865Z,101269.62
2018-09-15T12:11:17.291Z,101275.27
2018-09-15T12:16:14.744Z,101272.92
2018-09-15T12:21:12.168Z,101262.09
2018-09-15T12:26:09.580Z,101254.41
2018-09-15T12:31:06.982Z,101257.22
2018-09-15T12:36:04.419Z,101270.46
2018-09-15T12:41:01.862Z,101275.96
2018-09-15T12:45:59.283Z,101276.75
2018-09-15T12:50:57.057Z,101276.76
2018-09-15T12:55:54.475Z,101263.56
2018-09-15T13:00:51.891Z,101254.19
2018-09-15T13:05:49.283Z,101264.34
2018-09-15T13:10:46.830Z,101276.88
2018-09-15T13:15:44.235Z,101264.14
2018-09-15T13:20:42.168Z,101277.52
2018-09-15T13:25:39.600Z,101271.14
2018-09-15T13:30:37.019Z,101273.36
2018-09-15T13:35:34.434Z,101269.48
2018-09-15T13:40:31.843Z,101284.41
2018-09-15T13:45:29.236Z,101286.95
2018-09-15T13:50:26.655Z,101272.53
2018-09-15T13:55:24.071Z,101274.28
2018-09-15T14:00:21.499Z,101285.23
2018-09-15T14:05:18.938Z,101286.77
2018-09-15T14:10:19.007Z,101272.88
2018-09-15T14:15:15.012Z,101278.03
2018-09-15T14:20:12.415Z,101283.62
2018-09-15T14:25:09.815Z,101290.41
2018-09-15T14:30:07.262Z,101304.01
2018-09-15T14:35:04.753Z,101305.11
2018-09-15T14:40:03.222Z,101310.74
2018-09-15T14:45:00.624Z,101316.77
2018-09-15T14:49:58.050Z,101321.23
2018-09-15T14:54:55.460Z,101318.91
2018-09-15T14:59:52.882Z,101299.50
2018-09-15T15:04:50.299Z,101294.83
2018-09-15T15:09:55.670Z,101299.36
2018-09-15T15:14:53.076Z,101302.52
2018-09-15T15:19:50.486Z,101299.59
2018-09-15T15:24:47.907Z,101285.07
2018-09-15T15:29:45.323Z,101297.44
2018-09-15T15:34:42.766Z,101297.66
2018-09-15T15:39:48.226Z,101299.06
2018-09-15T15:44:46.084Z,101285.79
2018-09-15T15:49:43.675Z,101293.29
2018-09-15T15:54:41.127Z,101299.16
2018-09-15T15:59:38.580Z,101301.78
2018-09-15T16:04:35.986Z,101301.84
2018-09-15T16:09:40.469Z,101299.08
2018-09-15T16:14:38.027Z,101292.53
2018-09-15T16:19:35.503Z,101302.36
2018-09-15T16:24:36.909Z,101307.08
2018-09-15T16:29:34.435Z,101311.09
2018-09-15T16:34:31.935Z,101309.55
2018-09-15T16:39:36.858Z,101314.86
2018-09-15T16:44:34.351Z,101313.70
2018-09-15T16:49:31.811Z,101318.22
2018-09-15T16:54:30.370Z,101320.11
2018-09-15T16:59:27.763Z,101322.64
2018-09-15T17:04:25.174Z,101326.95
2018-09-15T17:14:33.849Z,101320.14
2018-09-15T17:19:31.247Z,101328.21
2018-09-15T17:24:29.684Z,101315.43
2018-09-15T17:29:27.308Z,101322.62
2018-09-15T17:34:25.810Z,101325.58
2018-09-15T17:39:30.056Z,101330.98
2018-09-15T17:44:28.636Z,101330.14
2018-09-15T17:49:26.054Z,101334.05
2018-09-15T17:54:24.944Z,101340.84
2018-09-15T17:59:22.403Z,101341.76
2018-09-15T18:04:20.099Z,101348.50
2018-09-15T18:09:25.270Z,101350.14
2018-09-15T18:14:23.771Z,101362.34
2018-09-15T18:19:21.171Z,101355.09
2018-09-15T18:24:18.562Z,101366.48
2018-09-15T18:29:15.946Z,101364.44
2018-09-15T18:34:13.331Z,101377.28
2018-09-15T18:39:13.584Z,101377.60
2018-09-15T18:44:11.090Z,101381.12
2018-09-15T18:49:08.483Z,101389.27
2018-09-15T18:54:08.564Z,101396.33
2018-09-15T18:59:06.263Z,101397.86
2018-09-15T19:04:03.671Z,101402.91
2018-09-15T19:09:01.060Z,101411.34
2018-09-15T19:13:58.487Z,101415.76
2018-09-15T19:18:55.871Z,101412.21
2018-09-15T19:23:53.244Z,101409.84
2018-09-15T19:28:50.615Z,101414.98
2018-09-15T19:33:48.296Z,101421.48
2018-09-15T19:38:47.474Z,101424.05
2018-09-15T19:43:45.068Z,101425.73
2018-09-15T19:48:42.450Z,101431.78
2018-09-15T19:53:39.831Z,101438.15
2018-09-15T19:58:37.221Z,101437.69
2018-09-15T20:03:34.611Z,101441.18
2018-09-15T20:08:31.994Z,101440.80
2018-09-15T20:13:29.415Z,101441.11
2018-09-15T20:18:25.711Z,101451.31
2018-09-15T20:23:23.086Z,101452.66
2018-09-15T20:28:20.471Z,101450.70
2018-09-15T20:33:17.890Z,101453.55
2018-09-15T20:38:15.274Z,101452.87
2018-09-15T20:43:12.718Z,101447.34
2018-09-15T20:48:10.095Z,101448.66
2018-09-15T20:53:07.507Z,101455.95
2018-09-15T20:58:04.980Z,101460.09
2018-09-15T21:03:02.365Z,101456.48
2018-09-15T21:07:59.790Z,101454.64
2018-09-15T21:12:57.246Z,101455.00
2018-09-15T21:17:54.625Z,101464.63
2018-09-15T21:22:52.010Z,101469.17
2018-09-15T21:27:49.412Z,101470.72
2018-09-15T21:32:46.795Z,101465.63
2018-09-15T21:37:44.512Z,101470.27
2018-09-15T21:42:41.937Z,101470.10
2018-09-15T21:47:39.343Z,101477.98
2018-09-15T21:52:36.748Z,101468.80
2018-09-15T21:57:35.316Z,101474.47
2018-09-15T22:02:32.702Z,101472.09
2018-09-15T22:07:30.083Z,101472.89
2018-09-15T22:12:27.550Z,101471.47
2018-09-15T22:17:24.980Z,101486.28
2018-09-15T22:22:22.506Z,101493.16
2018-09-15T22:27:19.802Z,101495.03
2018-09-15T22:32:17.215Z,101494.48
2018-09-15T22:37:14.598Z,101498.76
2018-09-15T22:42:12.030Z,101488.50
2018-09-15T22:47:09.404Z,101486.64
2018-09-15T22:52:06.812Z,101484.20
2018-09-15T22:57:04.406Z,101477.75
2018-09-15T23:02:01.823Z,101479.99
2018-09-15T23:06:59.567Z,101480.83
2018-09-15T23:11:57.411Z,101482.30
2018-09-15T23:16:54.792Z,101480.21
2018-09-15T23:21:52.186Z,101478.63
2018-09-15T23:26:49.630Z,101477.28
2018-09-15T23:31:47.021Z,101478.96
2018-09-15T23:36:44.407Z,101485.33
2018-09-15T23:41:41.794Z,101475.42
2018-09-15T23:46:39.171Z,101480.84
2018-09-15T23:51:36.582Z,101471.17
2018-09-15T23:56:33.963Z,101468.67
